Time;durP1;ratioP1;P1;durP2;ratioP2;P2;SDS_P1;SDS_P2;PMS_P1;PMS_P2;Temp;Humidity;BMP_temperature;BMP_pressure;BME280_temperature;BME280_humidity;BME280_pressure;Samples;Min_cycle;Max_cycle;Signal;HPM_P1;HPM_P2
2022/09/25 00:01:05;;;;;;;21.45;11.25;;;;;;;11.73;100.00;100330.03;6019009;29;20157;-91
2022/09/25 00:04:07;;;;;;;20.95;11.50;;;;;;;11.73;100.00;100343.00;6019830;29;20365;-90
2022/09/25 00:07:08;;;;;;;20.35;11.02;;;;;;;11.61;100.00;100334.50;6018632;29;20491;-90
2022/09/25 00:10:10;;;;;;;22.55;11.30;;;;;;;11.57;100.00;100335.72;6035919;29;20077;-89
2022/09/25 00:13:15;;;;;;;20.65;11.45;;;;;;;11.59;100.00;100328.63;6013285;29;20080;-89
2022/09/25 00:16:21;;;;;;;21.60;12.80;;;;;;;11.62;100.00;100331.75;6020457;29;20057;-89
2022/09/25 00:22:44;;;;;;;22.08;11.45;;;;;;;11.47;100.00;100320.13;6043305;29;20138;-90
2022/09/25 00:25:52;;;;;;;25.80;12.10;;;;;;;11.55;100.00;100332.41;6014626;29;20124;-90
2022/09/25 00:28:54;;;;;;;23.48;12.82;;;;;;;11.54;100.00;100323.03;6011782;29;20046;-89
2022/09/25 00:31:56;;;;;;;25.65;13.75;;;;;;;11.52;100.00;100319.72;6015641;29;20038;-90
2022/09/25 00:34:58;;;;;;;28.05;13.60;;;;;;;11.47;100.00;100319.31;6026525;29;20076;-89
2022/09/25 00:38:00;;;;;;;25.45;12.82;;;;;;;11.43;100.00;100311.81;6002451;29;20564;-89
2022/09/25 00:41:03;;;;;;;25.75;14.10;;;;;;;11.43;100.00;100316.19;6015345;29;21344;-90
2022/09/25 00:44:43;;;;;;;30.63;14.95;;;;;;;11.43;100.00;100319.59;6024385;29;20046;-91
2022/09/25 00:48:05;;;;;;;29.67;16.17;;;;;;;11.34;100.00;100307.41;6018433;29;20050;-90
2022/09/25 00:51:08;;;;;;;30.88;15.75;;;;;;;11.31;100.00;100312.84;6032615;29;20064;-90
2022/09/25 00:54:15;;;;;;;30.45;14.73;;;;;;;11.35;100.00;100323.75;6035621;29;20545;-90
2022/09/25 00:57:25;;;;;;;30.25;15.75;;;;;;;11.30;100.00;100321.56;6019322;29;20440;-90
2022/09/25 01:00:28;;;;;;;33.28;15.75;;;;;;;11.30;100.00;100331.13;6006750;29;20041;-90
2022/09/25 01:03:29;;;;;;;30.15;15.05;;;;;;;11.31;100.00;100328.41;6008128;29;20069;-90
2022/09/25 01:06:32;;;;;;;30.92;14.73;;;;;;;11.34;100.00;100325.53;6016875;29;20493;-91
2022/09/25 01:09:35;;;;;;;31.67;16.33;;;;;;;11.29;100.00;100319.94;6035123;29;20143;-93
2022/09/25 01:12:43;;;;;;;33.83;15.73;;;;;;;11.34;100.00;100322.13;6025026;29;20053;-91
2022/09/25 01:16:12;;;;;;;35.42;17.42;;;;;;;11.26;100.00;100327.97;6014373;29;20053;-91
2022/09/25 01:19:21;;;;;;;30.90;15.52;;;;;;;11.29;100.00;100332.06;6034593;29;20330;-91
2022/09/25 01:22:33;;;;;;;31.65;15.25;;;;;;;11.31;100.00;100323.22;6022000;29;20803;-93
2022/09/25 01:26:13;;;;;;;30.55;16.10;;;;;;;11.30;100.00;100318.97;6025331;29;20412;-92
2022/09/25 01:29:21;;;;;;;33.00;16.33;;;;;;;11.27;100.00;100321.81;6023347;29;20083;-92
2022/09/25 01:32:48;;;;;;;30.38;16.65;;;;;;;11.22;100.00;100318.81;6008654;29;20140;-91
2022/09/25 01:36:36;;;;;;;30.77;15.57;;;;;;;11.22;100.00;100324.00;6026461;29;20405;-91
2022/09/25 01:39:45;;;;;;;33.47;17.20;;;;;;;11.22;100.00;100324.00;5995794;29;20561;-92
2022/09/25 01:42:54;;;;;;;31.02;16.60;;;;;;;11.27;100.00;100318.44;5985619;29;20058;-92
2022/09/25 01:46:00;;;;;;;32.20;16.80;;;;;;;11.24;100.00;100324.69;5968230;29;20725;-93
2022/09/25 01:49:11;;;;;;;28.65;17.15;;;;;;;11.24;100.00;100324.69;5998860;29;20085;-92
2022/09/25 01:52:18;;;;;;;36.13;16.75;;;;;;;11.13;100.00;100322.19;6000449;29;20061;-92
2022/09/25 01:55:37;;;;;;;32.75;17.00;;;;;;;11.13;100.00;100322.19;5996790;29;20057;-92
2022/09/25 01:58:47;;;;;;;33.58;16.35;;;;;;;11.21;100.00;100330.13;6009299;29;20041;-92
2022/09/25 02:01:51;;;;;;;32.63;17.17;;;;;;;11.19;100.00;100326.84;6008569;29;20069;-92
2022/09/25 02:05:03;;;;;;;31.42;17.70;;;;;;;11.20;100.00;100321.56;5999904;29;20346;-93
2022/09/25 02:08:43;;;;;;;26.38;16.73;;;;;;;11.16;100.00;100321.94;5994111;29;20085;-93
2022/09/25 02:11:49;;;;;;;28.98;17.08;;;;;;;11.17;100.00;100324.38;5904077;30;20557;-92
2022/09/25 02:15:00;;;;;;;33.25;17.70;;;;;;;11.17;100.00;100320.97;5920230;29;20217;-95
2022/09/25 02:22:07;;;;;;;29.33;16.88;;;;;;;11.12;100.00;100317.97;5925926;29;20066;-92
2022/09/25 02:25:17;;;;;;;27.90;16.42;;;;;;;11.15;100.00;100317.69;5926087;29;20080;-93
2022/09/25 02:28:21;;;;;;;26.05;15.05;;;;;;;11.10;100.00;100319.84;5929768;29;20063;-94
2022/09/25 02:31:35;;;;;;;22.20;14.02;;;;;;;11.05;100.00;100322.00;5930482;29;20052;-93
2022/09/25 02:34:37;;;;;;;21.70;14.30;;;;;;;11.09;100.00;100320.81;5928562;29;20109;-91
2022/09/25 02:37:39;;;;;;;22.63;14.00;;;;;;;11.05;100.00;100320.22;5933620;29;20051;-92
2022/09/25 02:40:50;;;;;;;25.75;15.10;;;;;;;11.04;100.00;100322.97;5931774;29;20491;-93
2022/09/25 02:44:32;;;;;;;22.50;13.50;;;;;;;11.06;100.00;100321.91;5932525;29;20470;-93
2022/09/25 02:47:42;;;;;;;20.05;13.50;;;;;;;11.12;100.00;100330.91;5960216;29;20060;-91
2022/09/25 02:51:04;;;;;;;20.45;13.35;;;;;;;11.05;100.00;100325.41;6012218;29;20049;-94
2022/09/25 02:54:20;;;;;;;22.83;13.95;;;;;;;11.04;100.00;100331.56;6013144;29;20052;-93
2022/09/25 02:57:48;;;;;;;24.77;14.23;;;;;;;11.06;100.00;100319.31;6027063;29;20053;-93
2022/09/25 03:00:53;;;;;;;19.13;13.60;;;;;;;11.02;100.00;100330.03;6030251;29;20162;-95
2022/09/25 03:03:58;;;;;;;20.70;13.02;;;;;;;11.08;100.00;100319.16;6021249;29;20038;-93
2022/09/25 03:07:02;;;;;;;21.42;14.07;;;;;;;11.06;100.00;100314.13;6031942;29;20042;-93
2022/09/25 03:10:04;;;;;;;23.13;14.07;;;;;;;11.06;100.00;100310.72;6040660;29;20070;-93
2022/09/25 03:13:30;;;;;;;24.83;13.45;;;;;;;11.03;100.00;100323.91;6015842;29;20046;-93
2022/09/25 03:16:55;;;;;;;27.48;13.70;;;;;;;10.97;100.00;100320.06;6026191;29;20042;-93
2022/09/25 03:19:57;;;;;;;23.65;13.43;;;;;;;11.06;100.00;100321.06;6029437;29;20564;-92
2022/09/25 03:22:59;;;;;;;23.95;13.63;;;;;;;11.08;100.00;100316.56;6022394;29;20488;-92
2022/09/25 03:26:03;;;;;;;20.58;12.30;;;;;;;11.05;100.00;100314.25;6022822;29;20049;-91
2022/09/25 03:29:06;;;;;;;23.10;12.63;;;;;;;11.07;100.00;100312.34;6043722;29;20079;-93
2022/09/25 03:32:08;;;;;;;23.70;12.50;;;;;;;11.00;100.00;100317.22;6014648;29;20061;-93
2022/09/25 03:35:10;;;;;;;20.70;11.95;;;;;;;11.03;100.00;100322.16;6042013;29;20057;-91
2022/09/25 03:38:12;;;;;;;20.77;11.68;;;;;;;11.03;100.00;100316.13;6021757;29;20237;-92
2022/09/25 03:41:20;;;;;;;23.40;11.73;;;;;;;11.03;100.00;100316.97;6020613;29;20053;-92
2022/09/25 03:44:22;;;;;;;19.73;11.93;;;;;;;11.02;100.00;100319.69;6044773;29;20475;-92
2022/09/25 03:47:23;;;;;;;19.88;11.73;;;;;;;11.03;100.00;100314.38;6024882;29;20058;-92
2022/09/25 03:50:26;;;;;;;21.17;11.90;;;;;;;11.02;100.00;100311.91;6033455;29;20811;-92
2022/09/25 03:53:34;;;;;;;19.48;11.00;;;;;;;11.04;100.00;100312.63;6028839;29;20487;-92
2022/09/25 03:56:37;;;;;;;19.65;11.57;;;;;;;10.98;100.00;100314.78;6033297;29;20353;-94
2022/09/25 03:59:39;;;;;;;17.20;10.57;;;;;;;11.02;100.00;100312.72;6016083;29;20053;-91
2022/09/25 04:02:41;;;;;;;21.63;10.43;;;;;;;10.98;100.00;100312.19;6016973;29;20052;-93
2022/09/25 04:05:43;;;;;;;20.13;10.50;;;;;;;11.01;100.00;100312.88;6022573;29;20538;-93
2022/09/25 04:08:46;;;;;;;22.95;10.23;;;;;;;10.97;100.00;100304.53;6016545;29;20134;-91
2022/09/25 04:11:49;;;;;;;19.75;10.70;;;;;;;10.96;100.00;100300.31;6022781;29;20182;-92
2022/09/25 04:14:51;;;;;;;20.50;11.15;;;;;;;10.95;100.00;100302.06;6037258;29;20164;-91
2022/09/25 04:17:53;;;;;;;16.27;10.07;;;;;;;10.93;100.00;100298.81;6027272;29;20068;-92
2022/09/25 04:20:55;;;;;;;19.10;10.15;;;;;;;10.89;100.00;100301.78;6027213;29;20066;-91
2022/09/25 04:27:21;;;;;;;17.83;9.65;;;;;;;10.76;100.00;100302.78;6011935;29;20526;-92
2022/09/25 04:30:24;;;;;;;20.10;10.10;;;;;;;10.73;100.00;100302.22;6036936;29;20168;-91
2022/09/25 04:36:46;;;;;;;19.70;9.70;;;;;;;10.80;100.00;100303.34;6025861;29;20428;-92
2022/09/25 04:39:48;;;;;;;15.15;8.98;;;;;;;10.83;100.00;100299.69;6007868;29;20050;-93
2022/09/25 04:42:55;;;;;;;20.38;8.75;;;;;;;10.84;100.00;100301.34;6010855;29;20265;-91
2022/09/25 04:46:05;;;;;;;15.60;9.55;;;;;;;10.88;100.00;100302.69;6028817;29;20669;-91
2022/09/25 04:49:06;;;;;;;19.35;9.07;;;;;;;10.87;100.00;100304.47;6005638;29;20077;-91
2022/09/25 04:52:11;;;;;;;14.70;8.23;;;;;;;10.89;100.00;100291.41;6020644;29;20048;-90
2022/09/25 04:55:13;;;;;;;14.68;7.80;;;;;;;10.94;100.00;100303.03;6025867;29;20198;-93
2022/09/25 04:58:15;;;;;;;11.38;6.97;;;;;;;10.95;100.00;100306.41;6021947;29;20088;-93
2022/09/25 05:01:19;;;;;;;14.00;6.95;;;;;;;10.98;100.00;100303.56;6021068;29;20428;-92
2022/09/25 05:04:21;;;;;;;13.63;6.57;;;;;;;10.99;100.00;100310.41;6030606;29;20480;-90
2022/09/25 05:07:23;;;;;;;17.50;6.55;;;;;;;10.99;100.00;100305.22;6032300;29;20057;-90
2022/09/25 05:10:30;;;;;;;13.98;6.20;;;;;;;10.94;100.00;100305.59;6015529;29;20459;-91
2022/09/25 05:13:32;;;;;;;15.35;5.70;;;;;;;10.95;100.00;100307.22;6009917;29;20166;-91
2022/09/25 05:16:34;;;;;;;14.32;5.75;;;;;;;10.99;100.00;100313.00;6023492;29;20068;-91
2022/09/25 05:19:37;;;;;;;12.73;5.47;;;;;;;10.98;100.00;100311.34;6006997;29;20065;-90
2022/09/25 05:22:39;;;;;;;9.77;5.63;;;;;;;10.95;100.00;100312.41;6028226;29;20060;-91
2022/09/25 05:25:40;;;;;;;10.38;5.18;;;;;;;10.97;100.00;100314.88;6029724;29;20404;-91
2022/09/25 05:28:42;;;;;;;11.10;5.70;;;;;;;10.96;100.00;100316.66;6019701;29;20539;-91
2022/09/25 05:31:48;;;;;;;10.82;5.45;;;;;;;10.94;100.00;100317.75;6022084;29;20058;-91
2022/09/25 05:34:50;;;;;;;14.98;5.68;;;;;;;10.98;100.00;100316.50;6021427;29;20121;-91
2022/09/25 05:37:53;;;;;;;15.73;5.90;;;;;;;10.98;100.00;100316.50;6016569;29;20237;-92
2022/09/25 05:40:55;;;;;;;12.70;5.30;;;;;;;11.03;100.00;100310.94;6023545;29;20045;-89
2022/09/25 05:43:57;;;;;;;12.48;5.35;;;;;;;11.05;100.00;100317.66;6019996;29;20045;-90
2022/09/25 05:46:59;;;;;;;8.63;4.85;;;;;;;11.03;100.00;100314.38;6020454;29;20789;-91
2022/09/25 05:50:03;;;;;;;14.40;4.95;;;;;;;11.10;100.00;100312.09;6025131;29;20050;-90
2022/09/25 05:53:05;;;;;;;11.55;5.15;;;;;;;11.15;100.00;100320.28;6029623;29;20539;-93
2022/09/25 05:56:07;;;;;;;9.88;5.00;;;;;;;11.20;100.00;100316.38;6028268;29;20590;-90
2022/09/25 05:59:08;;;;;;;10.90;4.47;;;;;;;11.21;100.00;100314.59;6023811;29;20041;-90
2022/09/25 06:02:11;;;;;;;10.15;4.60;;;;;;;11.20;100.00;100310.34;6016231;29;20515;-90
2022/09/25 06:05:13;;;;;;;10.43;4.50;;;;;;;11.22;100.00;100316.22;6025325;29;20089;-91
2022/09/25 06:08:15;;;;;;;8.05;4.53;;;;;;;11.30;100.00;100316.38;6017803;29;20038;-90
2022/09/25 06:11:17;;;;;;;11.52;4.60;;;;;;;11.29;100.00;100314.75;6016230;29;20085;-90
2022/09/25 06:14:20;;;;;;;11.68;4.38;;;;;;;11.34;100.00;100317.78;6024531;29;20041;-90
2022/09/25 06:17:21;;;;;;;9.00;4.03;;;;;;;11.36;100.00;100308.09;6025385;29;20057;-91
2022/09/25 06:20:24;;;;;;;11.88;3.88;;;;;;;11.38;100.00;100319.16;6020018;29;20121;-91
2022/09/25 06:23:25;;;;;;;10.55;4.43;;;;;;;11.42;100.00;100309.34;6019164;29;20173;-91
2022/09/25 06:26:27;;;;;;;15.05;4.55;;;;;;;11.51;100.00;100318.09;6012782;29;20061;-90
2022/09/25 06:29:29;;;;;;;8.45;4.22;;;;;;;11.61;100.00;100311.16;6018028;29;20042;-90
2022/09/25 06:32:31;;;;;;;12.23;4.43;;;;;;;11.73;100.00;100312.69;6016106;29;20444;-90
2022/09/25 06:35:38;;;;;;;12.82;5.30;;;;;;;11.88;100.00;100312.34;6024093;29;20074;-91
2022/09/25 06:38:40;;;;;;;12.43;5.10;;;;;;;11.94;100.00;100306.59;6027655;29;20049;-91
2022/09/25 06:41:42;;;;;;;10.43;5.32;;;;;;;12.02;100.00;100311.94;6020386;29;20111;-90
2022/09/25 06:44:45;;;;;;;11.55;5.28;;;;;;;12.03;100.00;100304.03;6020425;29;20045;-90
2022/09/25 06:47:47;;;;;;;8.80;6.03;;;;;;;12.05;100.00;100307.31;6024633;29;20535;-92
2022/09/25 06:50:54;;;;;;;13.80;6.35;;;;;;;12.10;100.00;100313.84;6034341;29;20038;-91
2022/09/25 06:53:55;;;;;;;12.63;6.72;;;;;;;12.12;100.00;100311.94;6027260;29;20053;-91
2022/09/25 06:56:57;;;;;;;12.10;6.85;;;;;;;12.18;100.00;100312.22;6041798;29;20045;-91
2022/09/25 06:59:59;;;;;;;13.50;7.25;;;;;;;12.20;100.00;100317.28;6027420;29;20717;-90
2022/09/25 07:06:25;;;;;;;18.75;7.65;;;;;;;12.13;100.00;100303.22;6024780;29;20053;-91
2022/09/25 07:09:27;;;;;;;15.63;7.40;;;;;;;12.17;100.00;100305.38;6016777;29;20415;-90
2022/09/25 07:12:33;;;;;;;12.80;6.93;;;;;;;12.28;100.00;100299.25;6018950;29;20050;-90
2022/09/25 07:15:34;;;;;;;13.98;6.97;;;;;;;12.38;100.00;100309.63;6012816;29;20064;-90
2022/09/25 07:18:37;;;;;;;16.30;7.00;;;;;;;12.39;100.00;100309.47;6015529;29;20733;-90
2022/09/25 07:21:39;;;;;;;22.58;8.15;;;;;;;12.35;100.00;100312.50;6022473;29;20130;-91
2022/09/25 07:24:40;;;;;;;18.67;7.43;;;;;;;12.39;100.00;100314.66;6016870;29;20057;-90
2022/09/25 07:27:42;;;;;;;16.70;8.20;;;;;;;12.42;100.00;100323.94;6015753;29;22084;-90
2022/09/25 07:30:45;;;;;;;15.82;8.65;;;;;;;12.34;100.00;100319.44;6017192;29;20048;-93
2022/09/25 07:33:48;;;;;;;16.42;7.57;;;;;;;12.24;100.00;100324.63;6029500;29;20040;-90
2022/09/25 07:36:51;;;;;;;17.95;9.07;;;;;;;12.24;100.00;100331.59;6007498;29;20435;-91
2022/09/25 07:39:53;;;;;;;15.88;8.27;;;;;;;12.28;100.00;100325.19;6020712;29;20093;-90
2022/09/25 07:43:02;;;;;;;16.63;8.57;;;;;;;12.28;100.00;100322.59;6022681;29;20497;-91
2022/09/25 07:46:04;;;;;;;17.58;7.97;;;;;;;12.33;100.00;100324.78;6021153;29;20091;-90
2022/09/25 07:49:07;;;;;;;18.90;8.18;;;;;;;12.37;100.00;100331.31;6013746;29;20101;-90
2022/09/25 07:52:09;;;;;;;13.63;7.85;;;;;;;12.38;100.00;100323.41;6010642;29;20524;-89
2022/09/25 07:55:11;;;;;;;13.25;7.65;;;;;;;12.46;100.00;100327.91;6040013;29;20069;-90
2022/09/25 07:58:13;;;;;;;15.68;7.95;;;;;;;12.60;100.00;100326.66;6037448;29;20420;-89
2022/09/25 08:01:15;;;;;;;12.00;7.25;;;;;;;12.73;100.00;100334.16;6012959;29;20076;-90
2022/09/25 08:04:17;;;;;;;12.82;6.75;;;;;;;12.85;100.00;100333.03;6024961;29;20128;-90
2022/09/25 08:07:19;;;;;;;11.48;7.05;;;;;;;12.88;100.00;100335.34;6020826;29;20438;-90
2022/09/25 08:10:21;;;;;;;9.07;5.90;;;;;;;12.86;100.00;100338.09;6014712;29;20190;-90
2022/09/25 08:13:24;;;;;;;12.85;6.10;;;;;;;12.86;100.00;100350.25;6022360;29;20217;-90
2022/09/25 08:16:25;;;;;;;9.45;6.00;;;;;;;12.80;100.00;100343.03;6020197;29;20045;-89
2022/09/25 08:19:27;;;;;;;9.55;6.57;;;;;;;12.84;100.00;100347.78;6015124;29;20601;-90
2022/09/25 08:22:29;;;;;;;8.82;5.43;;;;;;;12.84;100.00;100336.59;6016029;29;20053;-89
2022/09/25 08:25:31;;;;;;;11.15;6.13;;;;;;;12.99;100.00;100348.16;6016062;29;20516;-90
2022/09/25 08:28:33;;;;;;;9.57;5.90;;;;;;;13.16;100.00;100341.41;6019318;29;20217;-90
2022/09/25 08:31:35;;;;;;;11.35;6.35;;;;;;;13.14;100.00;100344.16;6015010;29;20041;-89
2022/09/25 08:34:37;;;;;;;16.45;6.00;;;;;;;13.03;100.00;100344.31;6025983;29;20460;-89
2022/09/25 08:37:43;;;;;;;11.85;5.95;;;;;;;13.00;100.00;100346.41;6013114;29;20054;-89
2022/09/25 08:40:55;;;;;;;13.40;6.38;;;;;;;13.04;100.00;100339.94;6022419;29;20048;-89
2022/09/25 08:44:12;;;;;;;10.18;5.93;;;;;;;13.21;100.00;100348.78;6024984;29;20052;-89
2022/09/25 08:50:45;;;;;;;;;;;;;;;13.24;100.00;100354.53;6015057;29;20049;-89
2022/09/25 08:53:48;;;;;;;8.95;5.68;;;;;;;13.16;100.00;100341.41;6030617;29;20193;-90
2022/09/25 08:56:54;;;;;;;7.72;5.50;;;;;;;13.14;100.00;100344.16;6015947;29;20401;-89
2022/09/25 09:00:19;;;;;;;6.95;5.22;;;;;;;13.09;100.00;100346.38;6017591;29;20061;-90
2022/09/25 09:03:24;;;;;;;8.13;5.22;;;;;;;13.14;100.00;100345.94;6014964;29;20632;-89
2022/09/25 09:06:27;;;;;;;10.10;5.13;;;;;;;13.31;100.00;100350.41;6022987;29;20176;-90
2022/09/25 09:09:59;;;;;;;9.88;5.18;;;;;;;13.50;100.00;100354.72;6021133;29;20057;-89
2022/09/25 09:13:28;;;;;;;10.05;5.43;;;;;;;13.39;100.00;100361.88;6020026;29;20068;-89
2022/09/25 09:16:36;;;;;;;9.20;5.80;;;;;;;13.26;100.00;100357.78;6013361;29;20050;-89
2022/09/25 09:19:39;;;;;;;10.68;5.40;;;;;;;13.20;100.00;100360.16;6022960;29;20046;-88
2022/09/25 09:22:46;;;;;;;8.98;5.40;;;;;;;13.12;100.00;100358.25;6020841;29;20076;-89
2022/09/25 09:26:05;;;;;;;11.65;5.97;;;;;;;13.13;100.00;100349.50;6012712;29;20574;-88
2022/09/25 09:29:31;;;;;;;9.25;6.35;;;;;;;13.20;100.00;100353.16;6018144;29;20049;-89
2022/09/25 09:32:58;;;;;;;10.65;6.63;;;;;;;13.21;100.00;100347.00;6020421;29;20511;-89
2022/09/25 09:36:23;;;;;;;10.43;6.55;;;;;;;13.25;100.00;100339.75;6033011;29;20127;-90
2022/09/25 09:39:34;;;;;;;12.07;6.95;;;;;;;13.31;100.00;100342.59;6028309;29;20153;-89
2022/09/25 09:43:03;;;;;;;8.32;6.15;;;;;;;13.40;100.00;100340.13;6017986;29;20456;-88
2022/09/25 09:46:39;;;;;;;10.18;6.72;;;;;;;13.51;100.00;100351.13;6003292;29;20122;-89
2022/09/25 09:49:53;;;;;;;13.05;7.30;;;;;;;13.55;100.00;100343.88;6001022;29;20054;-89
2022/09/25 09:53:02;;;;;;;11.75;6.97;;;;;;;13.57;100.00;100350.56;6027287;29;20052;-89
2022/09/25 09:56:13;;;;;;;9.15;6.55;;;;;;;13.74;100.00;100348.16;6023999;29;20519;-89
2022/09/25 09:59:39;;;;;;;9.45;6.30;;;;;;;13.90;100.00;100343.13;6021549;29;20555;-89
2022/09/25 10:02:57;;;;;;;11.75;6.03;;;;;;;14.13;100.00;100342.69;6020268;29;20041;-88
2022/09/25 10:06:08;;;;;;;10.13;6.00;;;;;;;14.31;100.00;100340.06;6024340;29;20056;-88
2022/09/25 10:09:18;;;;;;;10.95;6.28;;;;;;;14.43;100.00;100336.25;6023671;29;20612;-89
2022/09/25 10:12:32;;;;;;;10.43;6.47;;;;;;;14.55;100.00;100335.09;6023705;29;20128;-89
2022/09/25 10:15:45;;;;;;;7.65;5.35;;;;;;;14.56;100.00;100335.94;6017535;29;20137;-88
2022/09/25 10:18:56;;;;;;;8.40;5.78;;;;;;;14.47;100.00;100335.00;6020740;29;20052;-89
2022/09/25 10:22:04;;;;;;;6.80;5.78;;;;;;;14.31;100.00;100342.66;6015180;29;20136;-87
2022/09/25 10:25:06;;;;;;;7.38;5.13;;;;;;;14.14;100.00;100333.94;6025367;29;20097;-88
2022/09/25 10:28:31;;;;;;;8.85;6.00;;;;;;;14.30;100.00;100328.84;6020542;29;20061;-89
2022/09/25 10:31:40;;;;;;;8.70;5.85;;;;;;;14.48;100.00;100336.63;6039900;29;20053;-89
2022/09/25 10:34:51;;;;;;;6.97;5.45;;;;;;;14.56;100.00;100339.34;6027948;29;20128;-89
2022/09/25 10:37:56;;;;;;;7.60;4.38;;;;;;;14.51;100.00;100340.72;6011151;29;20473;-88
2022/09/25 10:41:01;;;;;;;7.18;4.25;;;;;;;14.31;100.00;100338.31;6026632;29;20052;-88
2022/09/25 10:44:19;;;;;;;8.60;3.97;;;;;;;14.19;100.00;100339.50;6018694;29;20124;-88
2022/09/25 10:50:42;;;;;;;7.30;3.92;;;;;;;13.92;100.00;100333.38;6021471;29;20069;-88
2022/09/25 10:53:46;;;;;;;6.85;4.10;;;;;;;13.86;100.00;100336.56;6029687;29;20045;-89
2022/09/25 10:56:49;;;;;;;7.32;4.70;;;;;;;13.81;100.00;100336.19;6032213;29;20049;-88
2022/09/25 10:59:52;;;;;;;8.07;4.72;;;;;;;13.80;100.00;100337.16;6018896;29;20053;-89
2022/09/25 11:03:01;;;;;;;11.32;4.60;;;;;;;13.90;100.00;100337.91;6031188;29;20152;-89
2022/09/25 11:06:08;;;;;;;5.95;4.22;;;;;;;14.06;100.00;100331.22;6036317;29;20499;-89
2022/09/25 11:09:20;;;;;;;6.80;4.40;;;;;;;14.15;100.00;100332.94;6015341;29;20057;-88
2022/09/25 11:12:26;;;;;;;5.70;4.20;;;;;;;14.26;100.00;100327.53;6022103;29;20046;-89
2022/09/25 11:15:28;;;;;;;6.10;4.00;;;;;;;14.34;100.00;100334.59;6034381;29;20042;-88
2022/09/25 11:19:03;;;;;;;8.05;4.68;;;;;;;14.47;100.00;100329.78;6008671;29;20046;-89
2022/09/25 11:22:18;;;;;;;8.27;4.43;;;;;;;14.57;100.00;100329.75;6030359;29;20519;-89
2022/09/25 11:25:28;;;;;;;5.18;4.38;;;;;;;14.82;100.00;100328.91;6019087;29;20182;-88
2022/09/25 11:28:49;;;;;;;8.68;4.72;;;;;;;15.16;100.00;100325.53;6011691;29;20060;-90
2022/09/25 11:31:56;;;;;;;;;;;;;;;15.40;100.00;100324.00;6013967;29;20504;-88
2022/09/25 11:35:40;;;;;;;4.65;4.22;;;;;;;15.64;100.00;100325.88;6021725;29;20041;-89
2022/09/25 11:42:42;;;;;;;4.20;2.85;;;;;;;15.47;98.92;100317.97;6024129;29;20046;-88
2022/09/25 11:46:06;;;;;;;4.72;3.00;;;;;;;15.19;99.70;100316.59;6023681;29;20045;-88
2022/09/25 11:49:18;;;;;;;6.97;2.80;;;;;;;15.13;100.00;100309.38;6026533;29;20052;-88
2022/09/25 11:52:50;;;;;;;3.03;2.40;;;;;;;14.98;100.00;100302.16;6027356;29;20049;-88
2022/09/25 11:56:08;;;;;;;5.75;2.25;;;;;;;14.76;100.00;100295.69;6040756;29;20053;-88
2022/09/25 11:59:16;;;;;;;3.97;2.60;;;;;;;14.72;100.00;100294.34;6019087;29;20393;-88
2022/09/25 12:02:20;;;;;;;4.78;2.35;;;;;;;14.77;100.00;100291.28;6014358;29;20044;-88
2022/09/25 12:05:49;;;;;;;3.60;2.60;;;;;;;14.98;100.00;100286.50;6028312;29;20042;-90
2022/09/25 12:09:30;;;;;;;6.07;3.05;;;;;;;15.26;99.01;100289.72;6017365;29;20061;-91
2022/09/25 12:12:56;;;;;;;2.80;2.35;;;;;;;15.82;95.60;100290.03;6018142;29;20044;-93
2022/09/25 12:16:11;;;;;;;5.60;2.67;;;;;;;16.50;93.80;100281.06;6025586;29;20044;-90
2022/09/25 12:19:37;;;;;;;3.20;2.88;;;;;;;17.15;88.39;100277.50;6017285;29;20049;-90
2022/09/25 12:22:51;;;;;;;3.30;2.80;;;;;;;17.77;86.34;100281.09;6009378;29;20053;-90
2022/09/25 12:26:30;;;;;;;3.50;2.45;;;;;;;17.85;81.62;100274.00;6016773;29;20045;-88
2022/09/25 12:29:54;;;;;;;4.55;2.65;;;;;;;17.54;84.51;100271.41;6029592;29;20056;-87
2022/09/25 12:33:31;;;;;;;2.50;2.05;;;;;;;17.25;82.77;100271.25;6025710;29;20195;-86
2022/09/25 12:36:43;;;;;;;1.60;1.10;;;;;;;17.18;78.22;100271.09;6017931;29;20651;-87
2022/09/25 12:39:58;;;;;;;4.10;1.63;;;;;;;17.64;78.82;100269.38;6015970;29;20505;-87
2022/09/25 12:43:10;;;;;;;3.75;1.10;;;;;;;18.04;76.40;100257.00;6016311;29;20048;-87
2022/09/25 12:46:26;;;;;;;2.63;1.08;;;;;;;18.25;73.11;100258.13;6017694;29;20054;-87
2022/09/25 12:49:46;;;;;;;3.13;1.48;;;;;;;18.43;77.59;100248.16;6023356;29;20132;-87
2022/09/25 12:52:57;;;;;;;3.53;1.30;;;;;;;17.86;100.00;100239.00;6033765;29;20126;-87
2022/09/25 12:56:15;;;;;;;2.05;1.10;;;;;;;17.04;85.45;100230.78;6009421;29;20411;-87
2022/09/25 12:59:28;;;;;;;1.40;1.30;;;;;;;16.91;85.81;100230.50;6014444;29;20057;-86
2022/09/25 13:02:57;;;;;;;2.85;1.30;;;;;;;17.26;86.82;100239.66;6005402;29;20409;-89
2022/09/25 13:06:09;;;;;;;3.40;1.38;;;;;;;17.43;84.85;100235.16;6011109;29;20041;-87
2022/09/25 13:09:19;;;;;;;3.10;1.20;;;;;;;16.96;83.82;100228.19;6011560;29;20045;-86
2022/09/25 13:12:36;;;;;;;2.38;1.40;;;;;;;16.35;86.10;100225.25;6016091;29;20041;-86
2022/09/25 13:15:39;;;;;;;4.70;1.38;;;;;;;16.52;86.15;100223.41;6018860;29;20057;-87
2022/09/25 13:19:07;;;;;;;4.70;1.08;;;;;;;16.81;81.73;100228.09;6017538;29;20565;-88
2022/09/25 13:22:23;;;;;;;4.97;1.20;;;;;;;17.06;81.34;100220.97;6015928;29;20049;-88
2022/09/25 13:25:26;;;;;;;2.03;1.23;;;;;;;16.84;81.95;100227.75;6023288;29;20488;-88
2022/09/25 13:28:35;;;;;;;1.67;1.13;;;;;;;16.40;81.52;100219.50;6012999;29;20381;-88
2022/09/25 13:31:43;;;;;;;2.70;0.80;;;;;;;16.12;81.61;100218.13;6022109;29;20037;-87
2022/09/25 13:34:45;;;;;;;1.98;0.80;;;;;;;16.42;79.79;100222.78;6033784;29;20183;-88
2022/09/25 13:37:50;;;;;;;3.03;0.90;;;;;;;16.72;79.47;100222.06;6020596;29;20049;-88
2022/09/25 13:40:52;;;;;;;1.25;0.90;;;;;;;16.95;79.14;100223.97;6019045;29;20046;-89
2022/09/25 13:44:32;;;;;;;1.35;0.75;;;;;;;17.51;76.34;100211.53;6015546;29;20054;-88
2022/09/25 13:47:53;;;;;;;1.73;0.80;;;;;;;17.71;74.14;100216.31;6013476;29;20128;-88
2022/09/25 13:51:18;;;;;;;2.08;0.98;;;;;;;17.64;74.19;100218.84;6018965;29;20428;-88
2022/09/25 13:54:19;;;;;;;1.88;0.90;;;;;;;17.32;75.23;100219.88;6014513;29;20524;-87
2022/09/25 13:58:01;;;;;;;2.92;1.00;;;;;;;16.78;79.33;100220.59;6014350;29;20211;-87
2022/09/25 14:01:20;;;;;;;0.85;0.80;;;;;;;16.21;81.88;100223.31;6018461;29;20052;-88
2022/09/25 14:04:36;;;;;;;1.15;0.80;;;;;;;15.77;84.14;100214.03;6003989;29;20098;-87
2022/09/25 14:07:39;;;;;;;1.80;0.90;;;;;;;15.52;85.67;100227.00;6020473;29;20054;-87
2022/09/25 14:10:50;;;;;;;1.05;0.90;;;;;;;15.28;87.36;100233.00;6024827;29;20041;-87
2022/09/25 14:13:54;;;;;;;;;;;;;;;15.08;92.57;100227.25;6010110;29;20073;-87
2022/09/25 14:16:57;;;;;;;2.40;1.00;;;;;;;14.97;93.79;100217.09;6025032;29;20080;-86
2022/09/25 14:20:03;;;;;;;5.00;0.93;;;;;;;14.89;95.12;100227.50;6005787;29;20045;-88
2022/09/25 14:23:31;;;;;;;3.13;0.93;;;;;;;14.95;95.01;100218.22;6003698;29;20046;-87
2022/09/25 14:26:34;;;;;;;3.25;0.93;;;;;;;14.99;95.77;100214.34;6004759;29;20383;-86
2022/09/25 14:29:39;;;;;;;3.03;0.80;;;;;;;15.05;96.16;100211.09;6008598;29;20042;-87
2022/09/25 14:32:57;;;;;;;1.85;1.20;;;;;;;14.96;97.67;100204.25;6021743;29;20113;-87
2022/09/25 14:36:36;;;;;;;1.48;0.90;;;;;;;15.01;97.85;100209.78;6024076;29;20052;-87
2022/09/25 14:40:12;;;;;;;2.85;1.27;;;;;;;14.94;98.32;100204.38;6023568;29;20054;-87
2022/09/25 14:43:58;;;;;;;2.42;1.48;;;;;;;15.01;98.30;100201.97;6026086;29;20064;-87
2022/09/25 14:47:01;;;;;;;1.80;1.23;;;;;;;15.05;99.12;100204.09;5997398;29;20496;-88
2022/09/25 14:50:05;;;;;;;2.67;1.30;;;;;;;15.12;98.74;100203.47;5998278;29;20092;-90
2022/09/25 14:53:16;;;;;;;2.38;1.38;;;;;;;15.20;97.48;100200.88;5999512;29;20441;-87